Time;durP1;ratioP1;P1;durP2;ratioP2;P2;SDS_P1;SDS_P2;PMS_P1;PMS_P2;Temp;Humidity;BMP_temperature;BMP_pressure;BME280_temperature;BME280_humidity;BME280_pressure;Samples;Min_cycle;Max_cycle;Signal;HPM_P1;HPM_P2
2023/09/30 00:03:34;;;;;;;9.70;6.70;;;;;;;17.46;63.26;99991.63;218475;1256;141113;-76
2023/09/30 00:08:41;;;;;;;7.60;6.80;;;;;;;17.47;63.60;99985.80;218221;1259;141244;-74
2023/09/30 00:13:49;;;;;;;8.70;7.50;;;;;;;17.42;63.95;99976.12;218161;1254;140111;-76
2023/09/30 00:18:56;;;;;;;10.30;6.40;;;;;;;17.32;64.06;99980.04;218695;1256;139859;-77
2023/09/30 00:24:01;;;;;;;11.90;7.60;;;;;;;17.20;64.43;99976.49;220871;1256;140852;-78
2023/09/30 00:29:05;;;;;;;10.40;7.40;;;;;;;17.15;64.67;99982.96;218707;1256;139907;-73
2023/09/30 00:34:08;;;;;;;11.80;7.00;;;;;;;17.12;64.75;99979.10;220888;1256;141398;-73
2023/09/30 00:39:13;;;;;;;13.80;6.90;;;;;;;17.08;64.78;99978.57;220165;1255;141329;-74
2023/09/30 00:44:18;;;;;;;11.90;7.30;;;;;;;17.08;64.81;99973.77;219575;1255;142143;-74
2023/09/30 00:49:26;;;;;;;7.40;6.40;;;;;;;17.10;65.05;99971.84;218917;1256;140158;-72
2023/09/30 00:54:32;;;;;;;8.80;6.30;;;;;;;17.12;64.97;99970.63;218053;1257;140784;-71
2023/09/30 00:59:37;;;;;;;8.60;7.10;;;;;;;17.12;64.92;99975.33;219264;1256;140613;-71
2023/09/30 01:04:41;;;;;;;12.70;7.90;;;;;;;17.09;65.00;99975.29;218149;1256;140139;-70
2023/09/30 01:09:46;;;;;;;9.70;7.50;;;;;;;17.06;65.22;99976.42;218030;1256;141250;-72
2023/09/30 01:14:52;;;;;;;8.30;7.10;;;;;;;17.05;65.52;99981.70;218869;1256;140539;-72
2023/09/30 01:20:03;;;;;;;12.20;8.30;;;;;;;17.04;65.62;99982.08;217836;1254;140688;-74
2023/09/30 01:25:09;;;;;;;8.30;7.40;;;;;;;17.02;65.78;99982.99;217945;1257;140215;-73
2023/09/30 01:30:15;;;;;;;13.70;8.00;;;;;;;17.00;66.00;99973.35;217769;1257;140374;-75
2023/09/30 01:35:21;;;;;;;9.80;7.80;;;;;;;16.95;66.19;99972.33;219575;1256;140654;-72
2023/09/30 01:40:27;;;;;;;15.30;7.60;;;;;;;16.92;66.57;99973.04;218105;1257;221945;-77
2023/09/30 01:45:32;;;;;;;10.30;7.70;;;;;;;16.87;66.79;99963.66;218707;1255;140324;-77
2023/09/30 01:50:40;;;;;;;21.50;9.40;;;;;;;16.80;67.30;99960.70;218959;1256;139833;-80
2023/09/30 01:55:47;;;;;;;12.30;7.30;;;;;;;16.75;68.01;99963.20;218361;1256;141076;-75
2023/09/30 02:00:52;;;;;;;12.10;8.40;;;;;;;16.71;68.64;99974.71;217937;1257;140254;-83
2023/09/30 02:05:58;;;;;;;9.30;8.30;;;;;;;16.64;69.16;99979.97;219093;1256;141531;-70
2023/09/30 02:11:05;;;;;;;18.20;9.30;;;;;;;16.55;69.69;99980.54;218464;1255;140402;-73
2023/09/30 02:16:16;;;;;;;13.00;9.20;;;;;;;16.50;70.26;99987.75;220242;1256;140235;-75
2023/09/30 02:21:22;;;;;;;13.90;8.40;;;;;;;16.45;70.74;99980.80;218929;1256;140107;-75
2023/09/30 02:26:29;;;;;;;8.60;7.70;;;;;;;16.29;71.19;99961.72;218465;1256;139899;-69
2023/09/30 02:31:36;;;;;;;12.40;9.00;;;;;;;16.11;71.51;99944.38;219161;1256;140358;-70
2023/09/30 02:36:41;;;;;;;9.20;8.30;;;;;;;16.06;72.23;99937.52;219000;1256;141025;-70
2023/09/30 02:41:49;;;;;;;8.10;7.30;;;;;;;16.06;72.46;99938.55;219143;1256;141205;-74
2023/09/30 02:46:54;;;;;;;12.20;8.20;;;;;;;16.05;72.70;99965.86;219075;1256;139687;-69
2023/09/30 02:52:00;;;;;;;9.10;7.70;;;;;;;16.04;72.74;99971.19;219341;1255;140164;-68
2023/09/30 02:57:05;;;;;;;10.00;8.60;;;;;;;15.98;72.91;99958.69;218740;1259;139802;-71
2023/09/30 03:02:11;;;;;;;11.30;9.40;;;;;;;15.86;73.29;99955.29;218970;1256;139914;-69
2023/09/30 03:07:14;;;;;;;11.00;8.40;;;;;;;15.79;73.58;99957.89;219351;1256;140208;-70
2023/09/30 03:12:20;;;;;;;8.20;7.10;;;;;;;15.76;73.83;99960.25;218365;1257;140350;-71
2023/09/30 03:17:25;;;;;;;12.70;8.30;;;;;;;15.73;74.07;99952.48;218152;1257;140019;-73
2023/09/30 03:22:31;;;;;;;10.20;8.90;;;;;;;15.69;74.25;99954.23;218306;1259;140405;-77
2023/09/30 03:27:36;;;;;;;8.20;7.30;;;;;;;15.69;74.75;99957.52;218440;1257;139341;-77
2023/09/30 03:32:42;;;;;;;9.30;8.50;;;;;;;15.65;74.98;99954.60;218785;1255;140444;-77
2023/09/30 03:37:49;;;;;;;;;;;;;;;15.61;75.31;99950.22;218643;1259;141939;-71
2023/09/30 03:42:55;;;;;;;13.30;8.50;;;;;;;15.57;75.63;99950.49;219066;1256;126618;-75
2023/09/30 03:48:02;;;;;;;18.00;10.40;;;;;;;15.54;76.01;99962.77;218615;1255;140260;-79
2023/09/30 03:53:07;;;;;;;14.80;10.30;;;;;;;15.53;76.51;99971.73;218426;1256;141607;-79
2023/09/30 03:58:15;;;;;;;12.30;9.10;;;;;;;15.57;76.91;99985.38;219126;1256;141338;-76
2023/09/30 04:03:20;;;;;;;13.40;10.00;;;;;;;15.59;77.29;99987.64;218876;1257;140422;-71
2023/09/30 04:08:26;;;;;;;10.50;9.00;;;;;;;15.62;77.54;99981.77;218159;1256;140150;-77
2023/09/30 04:13:31;;;;;;;10.80;8.20;;;;;;;15.60;77.82;99986.50;218565;1255;139877;-77
2023/09/30 04:18:40;;;;;;;9.70;8.70;;;;;;;15.58;78.13;99989.23;218285;1259;139902;-79
2023/09/30 04:23:46;;;;;;;13.60;9.50;;;;;;;15.51;78.61;99985.41;218243;1257;140408;-78
2023/09/30 04:28:51;;;;;;;13.20;9.60;;;;;;;15.48;79.08;99988.52;219000;1256;141072;-76
2023/09/30 04:33:57;;;;;;;10.70;9.40;;;;;;;15.48;79.56;99987.66;218317;1257;140723;-76
2023/09/30 04:39:05;;;;;;;10.90;9.70;;;;;;;15.50;79.99;99997.71;218633;1256;142207;-73
2023/09/30 04:44:10;;;;;;;9.50;8.50;;;;;;;15.56;80.43;99993.42;218444;1257;140619;-78
2023/09/30 04:49:15;;;;;;;12.10;10.50;;;;;;;15.62;80.78;100004.45;218062;1255;140858;-80
2023/09/30 04:54:21;;;;;;;15.20;12.00;;;;;;;15.65;81.12;100003.94;218762;1256;142385;-76
2023/09/30 04:59:28;;;;;;;17.70;10.90;;;;;;;15.69;81.34;100013.63;218944;1256;140636;-80
2023/09/30 05:04:33;;;;;;;;;;;;;;;15.73;81.68;100016.98;218573;1256;140420;-77
2023/09/30 05:09:39;;;;;;;12.00;10.10;;;;;;;15.74;82.03;100020.39;218980;1256;127170;-74
2023/09/30 05:14:44;;;;;;;15.60;9.30;;;;;;;15.78;82.36;100021.27;218274;1259;140757;-77
2023/09/30 05:19:50;;;;;;;11.50;10.40;;;;;;;15.76;82.74;100019.75;218022;1255;141050;-77
2023/09/30 05:24:56;;;;;;;13.30;11.30;;;;;;;15.78;83.03;100022.29;218879;1256;140334;-77
2023/09/30 05:30:00;;;;;;;15.10;11.60;;;;;;;15.83;83.22;100032.10;218049;1257;140429;-78
2023/09/30 05:35:13;;;;;;;13.20;10.50;;;;;;;15.90;83.59;100046.27;217941;1257;141114;-76
2023/09/30 05:40:21;;;;;;;14.70;12.30;;;;;;;15.96;83.97;100049.45;218268;1257;140494;-77
2023/09/30 05:45:31;;;;;;;14.20;11.50;;;;;;;16.04;84.28;100057.02;218725;1255;142336;-79
2023/09/30 05:50:38;;;;;;;16.00;11.90;;;;;;;16.15;84.48;100059.45;218638;1255;140821;-79
2023/09/30 05:55:45;;;;;;;14.10;11.40;;;;;;;16.26;84.70;100066.89;218839;1257;140891;-78
2023/09/30 06:00:53;;;;;;;17.80;11.90;;;;;;;16.34;84.70;100076.77;220072;1255;140796;-79
2023/09/30 06:06:00;;;;;;;13.20;11.20;;;;;;;16.42;85.00;100075.55;219931;1256;141227;-78
2023/09/30 06:11:17;;;;;;;14.10;11.10;;;;;;;16.52;85.18;100082.19;220721;1255;140936;-79
2023/09/30 06:16:24;;;;;;;12.40;11.10;;;;;;;16.62;85.34;100086.32;219856;1255;140013;-79
2023/09/30 06:21:29;;;;;;;12.80;11.40;;;;;;;16.70;85.40;100086.74;219082;1257;140877;-78
2023/09/30 06:26:35;;;;;;;15.90;12.60;;;;;;;16.78;85.51;100088.06;218118;1257;141031;-78
2023/09/30 06:31:40;;;;;;;13.20;12.00;;;;;;;16.83;85.66;100089.12;219021;1259;141067;-77
2023/09/30 06:36:45;;;;;;;16.50;14.00;;;;;;;16.88;85.75;100093.48;219688;1256;141163;-76
2023/09/30 06:41:49;;;;;;;14.70;13.00;;;;;;;16.91;85.87;100100.72;218559;1256;142623;-78
2023/09/30 06:46:58;;;;;;;16.10;13.50;;;;;;;16.93;85.94;100108.16;218381;1257;140757;-77
2023/09/30 06:52:05;;;;;;;14.90;12.40;;;;;;;16.95;86.03;100110.36;218102;1257;234928;-77
2023/09/30 06:57:12;;;;;;;19.70;13.00;;;;;;;17.03;86.41;100116.09;218294;1258;140457;-74
2023/09/30 07:02:19;;;;;;;15.00;13.40;;;;;;;17.15;86.46;100124.07;218747;1257;140096;-77
2023/09/30 07:07:29;;;;;;;17.00;14.40;;;;;;;17.19;86.38;100129.93;218564;1257;140444;-77
2023/09/30 07:12:39;;;;;;;15.30;13.70;;;;;;;17.21;86.45;100134.52;218816;1257;142347;-73
2023/09/30 07:17:47;;;;;;;17.70;15.20;;;;;;;17.26;86.30;100140.94;218817;1257;140643;-77
2023/09/30 07:22:57;;;;;;;14.20;12.90;;;;;;;17.35;86.56;100146.23;218087;1257;140597;-76
2023/09/30 07:28:21;;;;;;;17.40;14.90;;;;;;;17.68;86.87;100149.30;218468;1256;221983;-77
2023/09/30 07:33:32;;;;;;;16.70;15.10;;;;;;;17.87;86.58;100158.02;218165;1257;140782;-77
2023/09/30 07:38:40;;;;;;;17.90;13.80;;;;;;;17.93;86.43;100167.57;219775;1257;140005;-77
2023/09/30 07:43:49;;;;;;;18.10;14.20;;;;;;;18.01;86.41;100174.19;218003;1257;250724;-78
2023/09/30 07:48:55;;;;;;;14.30;12.60;;;;;;;18.19;86.41;100181.59;218649;1257;140407;-77
2023/09/30 07:54:00;;;;;;;15.10;12.80;;;;;;;18.32;86.21;100183.07;219049;1257;141780;-78
2023/09/30 07:59:25;;;;;;;14.50;11.70;;;;;;;18.39;85.74;100186.96;218296;1259;141068;-77
2023/09/30 08:04:31;;;;;;;11.00;10.00;;;;;;;18.46;85.66;100191.54;218273;1257;142472;-76
2023/09/30 08:09:37;;;;;;;16.50;11.70;;;;;;;18.45;85.19;100195.97;219082;1255;140967;-78
2023/09/30 08:14:46;;;;;;;15.20;12.50;;;;;;;18.42;85.04;100198.73;218709;1256;141443;-77
2023/09/30 08:19:52;;;;;;;16.60;11.70;;;;;;;18.48;85.11;100198.06;218824;1257;141787;-77
2023/09/30 08:24:56;;;;;;;12.60;10.20;;;;;;;18.62;85.17;100200.42;218471;1255;142057;-78
2023/09/30 08:30:05;;;;;;;17.10;12.00;;;;;;;18.69;85.17;100199.04;219162;1257;140970;-77
2023/09/30 08:35:14;;;;;;;15.00;10.80;;;;;;;18.70;84.88;100208.65;218265;1259;141439;-77
2023/09/30 08:40:27;;;;;;;14.80;7.60;;;;;;;18.58;84.28;100222.40;218242;1257;140433;-78
2023/09/30 08:45:39;;;;;;;12.60;4.50;;;;;;;18.32;82.83;100240.33;217869;1259;141040;-78
2023/09/30 08:50:46;;;;;;;3.50;2.10;;;;;;;18.02;82.03;100254.08;218011;1257;140866;-79
2023/09/30 08:55:55;;;;;;;5.30;2.20;;;;;;;17.79;81.64;100259.09;217822;1257;140204;-77
2023/09/30 09:01:01;;;;;;;3.50;2.30;;;;;;;17.75;81.75;100267.58;218307;1255;140420;-77
2023/09/30 09:06:06;;;;;;;7.30;2.40;;;;;;;17.75;81.83;100284.01;217750;1257;141012;-76
2023/09/30 09:11:14;;;;;;;5.50;2.10;;;;;;;17.72;81.62;100285.15;218572;1257;139985;-77
2023/09/30 09:16:19;;;;;;;4.20;1.80;;;;;;;17.66;81.31;100291.92;218166;1257;140017;-77
2023/09/30 09:21:30;;;;;;;4.70;2.40;;;;;;;17.60;80.88;100301.23;218593;1259;139950;-77
2023/09/30 09:26:38;;;;;;;9.50;2.70;;;;;;;17.60;80.75;100312.23;218594;1257;140209;-77
2023/09/30 09:31:45;;;;;;;4.30;2.20;;;;;;;17.63;80.43;100316.39;218312;1256;140818;-77
2023/09/30 09:36:51;;;;;;;4.20;2.80;;;;;;;17.68;80.29;100322.90;218189;1257;231182;-74
2023/09/30 09:41:57;;;;;;;4.40;2.60;;;;;;;17.64;79.86;100327.41;219274;1257;140165;-76
2023/09/30 09:47:06;;;;;;;8.10;2.20;;;;;;;17.63;79.60;100336.77;218978;1256;141373;-76
2023/09/30 09:52:13;;;;;;;3.20;1.20;;;;;;;17.74;79.73;100337.83;218913;1259;140387;-76
2023/09/30 09:57:19;;;;;;;5.40;1.90;;;;;;;17.76;79.21;100347.00;219844;1257;141389;-77
2023/09/30 10:02:27;;;;;;;8.90;2.90;;;;;;;17.75;79.01;100356.27;218363;1256;140406;-77
2023/09/30 10:07:55;;;;;;;2.40;2.10;;;;;;;17.77;78.75;100352.18;219085;1257;141917;-76
2023/09/30 10:13:02;;;;;;;;;;;;;;;17.83;78.42;100353.55;218212;1259;139821;-77
2023/09/30 10:18:09;;;;;;;5.40;2.50;;;;;;;17.79;78.50;100362.11;220249;1257;126933;-79
2023/09/30 10:23:32;;;;;;;9.60;2.60;;;;;;;17.96;78.22;100373.74;219639;1257;139937;-77
2023/09/30 10:28:39;;;;;;;7.70;2.90;;;;;;;18.00;77.34;100375.12;218572;1256;140610;-77
2023/09/30 10:34:00;;;;;;;6.20;3.40;;;;;;;17.95;76.79;100375.20;219351;1256;142252;-78
2023/09/30 10:39:13;;;;;;;13.20;2.60;;;;;;;18.07;76.81;100371.16;218128;1259;140125;-77
2023/09/30 10:44:29;;;;;;;4.20;2.20;;;;;;;18.38;76.37;100372.15;218365;1259;140952;-77
2023/09/30 10:49:36;;;;;;;9.10;2.40;;;;;;;19.01;76.18;100365.86;218307;1259;139562;-77
2023/09/30 10:54:42;;;;;;;5.90;2.50;;;;;;;19.16;74.88;100368.02;218344;1259;141605;-77
2023/09/30 10:59:49;;;;;;;8.20;3.30;;;;;;;18.90;73.17;100371.61;219237;1259;140165;-77
2023/09/30 11:04:54;;;;;;;;;;;;;;;18.65;72.01;100371.08;218427;1256;140767;-76
2023/09/30 11:10:02;;;;;;;3.90;2.00;;;;;;;18.67;71.71;100365.23;219306;1257;127680;-76
2023/09/30 11:15:09;;;;;;;3.50;2.10;;;;;;;18.88;71.10;100365.24;218381;1256;141306;-76
2023/09/30 11:20:16;;;;;;;3.90;2.00;;;;;;;18.96;70.12;100370.08;218489;1256;140453;-75
2023/09/30 11:25:21;;;;;;;;;;;;;;;19.07;69.58;100377.34;217963;1257;140503;-76
2023/09/30 11:30:30;;;;;;;4.50;2.20;;;;;;;19.28;68.38;100386.58;219377;1257;127009;-76
2023/09/30 11:35:34;;;;;;;7.30;2.60;;;;;;;19.61;67.20;100390.17;218602;1257;140883;-77
2023/09/30 11:40:39;;;;;;;8.70;2.20;;;;;;;19.93;66.64;100388.27;219634;1257;141903;-76
2023/09/30 11:45:47;;;;;;;4.20;1.90;;;;;;;20.09;65.68;100390.65;218162;1259;139953;-74
2023/09/30 11:50:55;;;;;;;11.60;2.90;;;;;;;20.00;64.94;100387.29;217939;1257;140570;-76
2023/09/30 11:56:02;;;;;;;7.90;2.70;;;;;;;20.22;64.75;100387.46;218767;1258;139637;-75
2023/09/30 12:01:11;;;;;;;3.70;1.90;;;;;;;20.45;63.57;100385.26;220143;1256;250166;-75
2023/09/30 12:06:17;;;;;;;9.70;2.40;;;;;;;20.59;62.72;100392.85;220100;1259;142555;-75
2023/09/30 12:11:23;;;;;;;5.10;2.50;;;;;;;20.79;61.90;100381.89;220223;1258;139776;-76
2023/09/30 12:16:30;;;;;;;7.30;3.30;;;;;;;20.98;61.06;100386.90;218979;1258;140204;-76
2023/09/30 12:21:36;;;;;;;5.00;2.20;;;;;;;20.96;60.56;100393.85;218147;1259;140962;-74
2023/09/30 12:26:47;;;;;;;12.10;3.50;;;;;;;20.90;60.17;100394.55;218335;1257;140673;-74
2023/09/30 12:31:53;;;;;;;4.00;2.20;;;;;;;20.79;59.54;100391.86;219296;1259;140766;-71
2023/09/30 12:37:00;;;;;;;12.10;3.20;;;;;;;20.87;59.35;100386.99;218179;1260;140427;-69
2023/09/30 12:42:08;;;;;;;7.80;3.00;;;;;;;20.69;58.73;100398.67;219367;1257;140375;-74
2023/09/30 12:47:14;;;;;;;7.00;2.50;;;;;;;20.33;58.20;100401.89;218404;1259;140862;-71
2023/09/30 12:52:18;;;;;;;4.70;2.30;;;;;;;20.05;58.39;100402.20;218481;1260;140030;-74
2023/09/30 12:57:26;;;;;;;4.40;1.90;;;;;;;19.87;58.35;100404.21;218362;1260;138936;-76
2023/09/30 13:02:46;;;;;;;3.50;2.50;;;;;;;19.64;58.34;100401.37;218059;1260;139235;-72
2023/09/30 13:07:55;;;;;;;11.20;3.10;;;;;;;19.51;58.56;100402.13;219026;1257;139477;-77
2023/09/30 13:13:00;;;;;;;6.80;2.70;;;;;;;19.56;58.51;100396.70;217832;1260;140307;-74
2023/09/30 13:18:05;;;;;;;4.90;2.20;;;;;;;19.56;58.08;100395.84;218700;1257;139211;-79
2023/09/30 13:23:11;;;;;;;10.90;3.60;;;;;;;19.66;57.93;100393.77;218355;1260;140043;-78
2023/09/30 13:28:16;;;;;;;10.10;3.50;;;;;;;19.72;57.96;100402.89;218459;1260;140398;-70
2023/09/30 13:33:21;;;;;;;8.60;4.10;;;;;;;19.83;57.70;100409.34;218233;1257;139085;-70
2023/09/30 13:38:27;;;;;;;7.40;3.10;;;;;;;19.72;57.49;100414.95;218171;1256;151151;-73
2023/09/30 13:43:33;;;;;;;6.00;3.00;;;;;;;19.56;57.22;100420.48;218513;1257;140173;-70
2023/09/30 13:48:37;;;;;;;7.30;3.80;;;;;;;19.39;56.94;100413.23;218122;1259;140232;-71
2023/09/30 13:53:43;;;;;;;16.80;4.20;;;;;;;19.30;57.16;100413.05;218756;1260;140204;-75
2023/09/30 13:58:48;;;;;;;6.90;3.10;;;;;;;19.21;57.28;100419.20;219205;1260;211355;-74
2023/09/30 14:03:55;;;;;;;;;;;;;;;19.23;57.13;100419.84;219062;1258;140135;-76
2023/09/30 14:08:59;;;;;;;8.80;3.10;;;;;;;19.29;56.97;100422.67;220142;1257;126033;-74
2023/09/30 14:14:04;;;;;;;9.30;3.80;;;;;;;19.30;56.81;100432.45;219377;1257;139279;-74
2023/09/30 14:19:09;;;;;;;11.50;4.20;;;;;;;19.37;56.52;100425.89;218909;1257;140527;-71
2023/09/30 14:24:15;;;;;;;9.60;3.90;;;;;;;19.42;56.38;100428.42;219343;1260;139459;-69
2023/09/30 14:29:22;;;;;;;7.50;3.70;;;;;;;19.43;56.49;100431.88;219053;1260;140270;-74
2023/09/30 14:34:33;;;;;;;6.20;2.50;;;;;;;19.23;56.36;100431.14;218693;1258;139357;-74
2023/09/30 14:39:45;;;;;;;5.90;3.10;;;;;;;19.01;56.10;100426.48;218208;1257;230671;-73
2023/09/30 14:45:03;;;;;;;7.70;3.40;;;;;;;18.79;56.03;100426.02;218479;1257;139168;-78
2023/09/30 14:50:10;;;;;;;11.20;3.60;;;;;;;18.63;56.41;100431.55;218106;1260;139039;-75
2023/09/30 14:55:18;;;;;;;8.70;4.20;;;;;;;18.36;56.43;100434.50;218217;1258;140154;-75
2023/09/30 15:00:26;;;;;;;8.50;2.70;;;;;;;18.18;56.69;100435.13;219328;1257;139284;-76
2023/09/30 15:05:35;;;;;;;9.80;3.60;;;;;;;18.02;56.75;100436.61;218858;1257;139887;-76
2023/09/30 15:10:41;;;;;;;5.50;2.70;;;;;;;17.90;56.81;100437.60;218303;1259;140157;-75
2023/09/30 15:15:50;;;;;;;4.20;3.10;;;;;;;17.84;56.97;100446.97;218189;1259;139572;-78
2023/09/30 15:20:59;;;;;;;7.50;2.90;;;;;;;17.78;57.06;100455.14;218654;1257;139299;-78
2023/09/30 15:26:04;;;;;;;3.70;2.50;;;;;;;17.71;57.15;100458.70;218176;1259;139889;-76
2023/09/30 15:31:10;;;;;;;8.50;4.50;;;;;;;17.71;57.27;100460.96;218508;1256;139507;-77
2023/09/30 15:36:20;;;;;;;3.90;2.70;;;;;;;17.70;57.35;100461.77;218418;1257;139493;-78
2023/09/30 15:41:25;;;;;;;3.80;2.70;;;;;;;17.63;57.16;100471.74;218931;1257;139186;-79
2023/09/30 15:46:30;;;;;;;7.90;2.90;;;;;;;17.57;57.21;100470.57;219286;1255;154965;-78
2023/09/30 15:51:35;;;;;;;6.00;2.60;;;;;;;17.43;57.07;100472.50;220613;1256;141120;-76
2023/09/30 15:56:41;;;;;;;8.00;3.60;;;;;;;17.29;57.13;100479.59;218432;1257;139782;-76
2023/09/30 16:02:01;;;;;;;7.10;2.50;;;;;;;17.10;57.04;100478.94;218690;1255;138998;-75
2023/09/30 16:07:06;;;;;;;7.60;2.40;;;;;;;16.92;57.22;100489.20;218100;1257;139577;-78
2023/09/30 16:12:11;;;;;;;7.80;2.40;;;;;;;16.71;57.33;100499.16;218965;1256;139235;-70
2023/09/30 16:17:17;;;;;;;5.40;2.80;;;;;;;16.51;57.62;100506.86;218580;1258;139378;-76
2023/09/30 16:22:21;;;;;;;3.90;2.00;;;;;;;16.36;57.85;100515.21;218963;1257;140373;-77
2023/09/30 16:27:25;;;;;;;8.80;2.40;;;;;;;16.26;58.12;100520.87;218741;1259;139369;-72
2023/09/30 16:32:37;;;;;;;5.60;1.80;;;;;;;16.13;58.29;100523.44;218315;1257;140201;-79
2023/09/30 16:37:43;;;;;;;5.00;2.10;;;;;;;16.00;58.45;100526.50;218584;1257;139516;-76
2023/09/30 16:42:48;;;;;;;8.90;2.70;;;;;;;15.87;58.75;100533.27;218651;1257;139453;-73
2023/09/30 16:47:52;;;;;;;20.20;3.50;;;;;;;15.71;58.84;100535.98;218080;1256;139494;-76
2023/09/30 16:52:57;;;;;;;9.30;3.20;;;;;;;15.58;59.23;100537.35;218352;1257;250543;-73
2023/09/30 16:58:08;;;;;;;6.70;2.20;;;;;;;15.42;59.54;100537.87;218284;1258;139954;-72
2023/09/30 17:03:17;;;;;;;15.60;3.40;;;;;;;15.28;60.07;100532.55;217984;1256;139838;-71
2023/09/30 17:08:22;;;;;;;4.50;2.70;;;;;;;15.09;60.31;100530.39;218056;1257;220036;-69
2023/09/30 17:13:30;;;;;;;6.50;2.30;;;;;;;14.79;60.71;100533.45;219016;1256;139586;-71
2023/09/30 17:18:37;;;;;;;5.40;2.00;;;;;;;14.54;61.25;100539.88;218310;1260;140250;-75
2023/09/30 17:23:43;;;;;;;5.40;2.30;;;;;;;14.32;61.83;100546.36;217958;1257;140183;-78
2023/09/30 17:28:51;;;;;;;5.70;2.40;;;;;;;14.13;62.36;100555.39;218455;1257;140967;-71
2023/09/30 17:33:57;;;;;;;5.10;2.30;;;;;;;13.94;62.82;100558.31;218269;1259;140561;-78
2023/09/30 17:39:04;;;;;;;6.20;3.10;;;;;;;13.74;63.25;100564.54;218770;1256;140440;-78
2023/09/30 17:44:09;;;;;;;6.30;2.20;;;;;;;13.58;63.63;100560.97;218285;1259;140612;-71
2023/09/30 17:49:18;;;;;;;5.50;2.70;;;;;;;13.41;63.87;100564.52;218910;1259;139755;-72
2023/09/30 17:54:23;;;;;;;5.90;2.10;;;;;;;13.21;64.59;100567.95;218282;1257;140042;-78
2023/09/30 17:59:32;;;;;;;6.50;3.40;;;;;;;13.00;65.00;100570.41;218246;1256;140458;-78
2023/09/30 18:04:50;;;;;;;5.80;2.60;;;;;;;12.82;65.47;100566.73;218596;1259;140230;-77
2023/09/30 18:09:56;;;;;;;9.30;3.30;;;;;;;12.64;65.61;100563.17;217787;1257;140223;-73
2023/09/30 18:15:01;;;;;;;4.60;2.60;;;;;;;12.42;66.19;100559.13;217895;1255;140892;-72
2023/09/30 18:20:08;;;;;;;11.10;2.80;;;;;;;12.22;66.52;100561.61;218144;1257;140172;-76
2023/09/30 18:25:17;;;;;;;9.10;3.40;;;;;;;12.11;67.09;100562.83;218085;1259;142976;-79
2023/09/30 18:30:26;;;;;;;12.20;3.60;;;;;;;12.01;67.72;100563.48;218285;1256;139886;-78
2023/09/30 18:35:39;;;;;;;4.20;2.40;;;;;;;11.93;67.83;100567.80;218023;1257;140343;-71
2023/09/30 18:40:50;;;;;;;3.10;2.40;;;;;;;11.78;67.98;100572.23;218473;1256;140678;-82
2023/09/30 18:46:09;;;;;;;12.00;3.80;;;;;;;11.69;68.36;100571.45;218221;1257;140185;-81
2023/09/30 18:51:20;;;;;;;4.90;2.90;;;;;;;11.64;68.77;100572.14;218312;1259;141339;-73
2023/09/30 18:56:41;;;;;;;5.90;2.90;;;;;;;11.59;68.80;100585.67;218325;1257;140848;-78
2023/09/30 19:01:54;;;;;;;3.60;2.30;;;;;;;11.49;69.08;100593.17;218424;1256;140341;-74
2023/09/30 19:07:14;;;;;;;6.30;3.20;;;;;;;11.39;69.43;100589.27;218921;1258;140022;-79
2023/09/30 19:12:30;;;;;;;9.70;2.90;;;;;;;11.33;69.57;100588.73;218497;1256;140962;-80
2023/09/30 19:17:39;;;;;;;5.70;3.10;;;;;;;11.30;69.92;100589.20;218601;1257;139919;-82
2023/09/30 19:22:53;;;;;;;14.30;3.80;;;;;;;11.26;70.28;100590.92;218496;1256;141245;-76
2023/09/30 19:28:04;;;;;;;7.70;3.30;;;;;;;11.18;70.27;100586.18;218954;1255;141495;-78
2023/09/30 19:33:14;;;;;;;9.50;2.90;;;;;;;11.13;70.61;100587.86;219047;1258;140393;-81
2023/09/30 19:38:31;;;;;;;3.00;2.60;;;;;;;11.07;70.58;100593.88;218726;1257;140591;-77
2023/09/30 19:43:38;;;;;;;4.40;3.10;;;;;;;11.02;70.93;100592.66;218921;1256;140241;-80
2023/09/30 19:48:49;;;;;;;4.10;2.50;;;;;;;10.95;71.03;100583.36;218710;1256;140261;-83
2023/09/30 19:53:56;;;;;;;6.20;3.90;;;;;;;10.84;71.17;100588.60;218062;1257;140716;-76
2023/09/30 19:59:08;;;;;;;3.70;2.90;;;;;;;10.74;71.50;100597.07;218759;1256;141093;-77
2023/09/30 20:04:16;;;;;;;4.90;3.60;;;;;;;10.63;71.69;100605.11;218332;1257;140088;-75
2023/09/30 20:09:30;;;;;;;7.20;3.10;;;;;;;10.53;71.93;100609.02;219289;1255;140182;-76
2023/09/30 20:14:46;;;;;;;7.70;3.60;;;;;;;10.43;71.90;100608.52;218423;1256;141022;-80
2023/09/30 20:19:58;;;;;;;10.70;3.70;;;;;;;10.35;72.28;100604.56;218756;1256;140732;-78
2023/09/30 20:25:03;;;;;;;11.90;4.40;;;;;;;10.30;72.33;100617.04;218126;1256;140443;-81
2023/09/30 20:30:10;;;;;;;9.10;4.50;;;;;;;10.23;72.60;100614.35;218011;1256;141837;-76
2023/09/30 20:35:15;;;;;;;10.90;5.40;;;;;;;10.19;73.00;100620.64;218084;1257;140973;-81
2023/09/30 20:40:28;;;;;;;9.30;3.90;;;;;;;10.11;73.12;100625.67;218484;1256;248698;-77
2023/09/30 20:45:40;;;;;;;8.90;5.00;;;;;;;10.04;73.46;100627.48;218112;1256;141959;-74
2023/09/30 20:50:46;;;;;;;10.00;4.70;;;;;;;10.00;73.54;100626.09;217566;1255;246593;-74
2023/09/30 20:55:54;;;;;;;6.70;3.60;;;;;;;9.94;73.74;100632.66;217906;1259;140442;-69
2023/09/30 21:01:14;;;;;;;4.30;3.90;;;;;;;9.88;73.99;100629.62;218132;1257;139809;-73
2023/09/30 21:06:21;;;;;;;9.50;2.80;;;;;;;9.75;73.77;100641.73;217666;1258;139766;-73
2023/09/30 21:11:27;;;;;;;3.70;2.90;;;;;;;9.62;74.07;100637.13;217855;1257;225242;-73
2023/09/30 21:16:36;;;;;;;10.00;3.10;;;;;;;9.53;74.33;100637.61;218484;1259;140685;-72
2023/09/30 21:21:43;;;;;;;7.60;4.10;;;;;;;9.46;74.51;100640.05;218027;1256;140966;-74
2023/09/30 21:26:48;;;;;;;10.70;3.10;;;;;;;9.38;74.55;100633.46;218489;1256;141144;-75
2023/09/30 21:31:56;;;;;;;6.30;4.20;;;;;;;9.26;74.84;100622.36;219153;1257;140542;-79
2023/09/30 21:37:04;;;;;;;8.40;4.10;;;;;;;9.17;74.99;100634.02;219014;1256;140482;-80
2023/09/30 21:42:09;;;;;;;5.10;2.90;;;;;;;9.15;75.32;100628.59;219354;1256;140008;-78
2023/09/30 21:47:14;;;;;;;2.50;2.30;;;;;;;9.13;75.43;100621.39;219688;1256;140485;-75
2023/09/30 21:52:20;;;;;;;4.10;2.60;;;;;;;9.03;75.13;100625.70;218802;1256;140864;-75
2023/09/30 21:57:26;;;;;;;6.30;2.60;;;;;;;8.94;75.33;100633.41;218324;1257;141063;-72
2023/09/30 22:02:32;;;;;;;9.30;3.80;;;;;;;8.86;75.21;100639.46;218308;1257;140843;-76
2023/09/30 22:07:39;;;;;;;4.60;3.10;;;;;;;8.77;75.68;100639.44;218917;1256;140148;-76
2023/09/30 22:12:44;;;;;;;8.80;4.30;;;;;;;8.67;75.83;100636.09;219243;1259;140660;-77
2023/09/30 22:17:49;;;;;;;5.10;3.60;;;;;;;8.54;75.79;100638.80;218141;1257;141263;-76
2023/09/30 22:22:53;;;;;;;6.20;3.50;;;;;;;8.50;76.31;100638.09;218340;1257;140097;-78
2023/09/30 22:27:58;;;;;;;8.30;3.20;;;;;;;8.43;76.18;100632.71;218624;1257;139770;-74
2023/09/30 22:33:04;;;;;;;7.20;2.70;;;;;;;8.30;76.14;100638.51;218376;1257;140833;-74
2023/09/30 22:38:09;;;;;;;7.10;3.10;;;;;;;8.21;76.64;100640.19;218854;1257;139476;-74
2023/09/30 22:43:15;;;;;;;6.40;2.90;;;;;;;8.13;76.73;100640.68;218301;1255;140220;-77
2023/09/30 22:48:22;;;;;;;6.60;4.00;;;;;;;8.06;76.87;100637.61;218097;1257;140258;-76
2023/09/30 22:53:27;;;;;;;6.00;3.40;;;;;;;8.04;77.30;100648.46;218219;1257;141050;-75
2023/09/30 22:58:33;;;;;;;13.00;3.70;;;;;;;8.01;77.39;100649.27;218389;1255;141051;-79
2023/09/30 23:03:38;;;;;;;6.90;3.60;;;;;;;7.97;77.47;100648.17;218548;1257;140117;-77
2023/09/30 23:08:48;;;;;;;6.00;3.40;;;;;;;7.95;77.44;100644.98;218232;1259;140984;-78
2023/09/30 23:13:54;;;;;;;6.20;3.50;;;;;;;7.90;77.48;100650.23;218931;1255;140215;-79
2023/09/30 23:19:04;;;;;;;4.10;3.20;;;;;;;7.82;77.49;100653.16;218187;1257;140894;-78